Terminal Aerodrome Forecast
Issued by NWS

Home | Current Version | Previous Version | Text Only | Print | Product List | Glossary On
Versions: 1 2 3 4 5 6 7 8 9 10 11 12 13
730
FTUS43 KJKL 210530
TAFSME
TAF
KSME 210530Z 2106/2206 00000KT P6SM FEW090 FEW250
      TEMPO 2106/2109 3SM BR
     FM210900 00000KT 3SM BR FEW090 FEW250
     FM211600 26006KT P6SM FEW060=

USA.gov is the U.S. government's official web portal to all federal, state and local government web resources and services.